Black Mountain, NC (28711)

2:44 AM EST on February 01, 2015 (GMT -0500)
Timber Park | Change Station
CLOSE
Current Station
Personal Weather Station
Location: Black Mountain, NC
Elevation: 2615 ft
Nearby Weather Stations
Active Advisory: Wind Advisory

Elev 2615 ft 35.60 °N, 82.31 °W | Updated 4 seconds ago

Mostly Cloudy
Mostly Cloudy
35.5 °F
Feels Like 36 °F
N
0.0
Wind Variable Wind from SSE
Gusts 0.0 mph

Today
High -- | Low -- °F
--% Chance of Precip.
Yesterday
High -- | Low -- °F
Precip. -- in
7:29 AM 5:56 PM
Waxing Gibbous, 94% visible
Pressure 30.22 in
Visibility 10.0 miles
Clouds Mostly Cloudy 12000 ft
Windchill 36 °F
Dew Point 14 °F
Humidity 40%
Rainfall 0.00 in
Snow Depth Not available.
UV 0 out of 12
Pollen 1.30 out of 12
Air Quality Not available.
Flu Activity Not available.
METAR KAVL 010654Z AUTO 00000KT 10SM BKN120 01/M07 A3021 RMK AO2 SLP234 T00111067

More Conditions Fewer Conditions

Pressure 30.22 in
Visibility 10.0 miles
Clouds Mostly Cloudy 12000 ft
Windchill 36 °F
Dew Point 14 °F
Humidity 40%
Rainfall 0.00 in
Snow Depth Not available.
UV 0 out of 12
Pollen 1.30 out of 12
Air Quality Not available.
Flu Activity Not available.
METAR KAVL 010654Z AUTO 00000KT 10SM BKN120 01/M07 A3021 RMK AO2 SLP234 T00111067

More Conditions Fewer Conditions

10-Day Weather Forecast

Almanac

Astronomy

Feb. 01, 2015 Rise Set
Actual Time
Civil Twilight
Nautical Twilight
Astronomical Twilight
Moon
Length of Visible Light
Length of Day
Tomorrow will be .
, % of the Moon is Illuminated

Today's Extremes

State Highs State Lows

Community

WunderPhotos

Upload Photos

1,792,327 photos uploaded!

WunderBlogs® & News

Nearby

Air Quality

  Air Quality AQ Index Pollutant
Not available.

Snow Depth

Station Depth Elevation

Earthquake Activity

City Distance Mag. Time & Date
Minimum magnitude displayed is 2.5.

Coastal Water Temperatures

Place Temperature

Nearby Weather Stations